sensor_id;sensor_type;location;lat;lon;timestamp;temperature;humidity
49503;DHT22;35409;48.776;9.204;2024-03-25T00:01:51;4.80;99.90
49503;DHT22;35409;48.776;9.204;2024-03-25T00:04:16;4.80;99.90
49503;DHT22;35409;48.776;9.204;2024-03-25T00:06:42;4.90;99.90
49503;DHT22;35409;48.776;9.204;2024-03-25T00:09:08;4.90;99.90
49503;DHT22;35409;48.776;9.204;2024-03-25T00:11:42;4.90;99.90
49503;DHT22;35409;48.776;9.204;2024-03-25T00:14:08;4.90;99.90
49503;DHT22;35409;48.776;9.204;2024-03-25T00:16:34;4.90;99.90
49503;DHT22;35409;48.776;9.204;2024-03-25T00:19:00;4.80;99.90
49503;DHT22;35409;48.776;9.204;2024-03-25T00:21:26;4.90;99.90
49503;DHT22;35409;48.776;9.204;2024-03-25T00:23:51;4.90;99.90
49503;DHT22;35409;48.776;9.204;2024-03-25T00:26:17;4.90;99.90
49503;DHT22;35409;48.776;9.204;2024-03-25T00:28:43;4.90;99.90
49503;DHT22;35409;48.776;9.204;2024-03-25T00:31:09;5.00;99.90
49503;DHT22;35409;48.776;9.204;2024-03-25T00:33:34;5.00;99.90
49503;DHT22;35409;48.776;9.204;2024-03-25T00:36:00;5.10;99.90
49503;DHT22;35409;48.776;9.204;2024-03-25T00:38:26;5.00;99.90
49503;DHT22;35409;48.776;9.204;2024-03-25T00:40:51;5.00;99.90
49503;DHT22;35409;48.776;9.204;2024-03-25T00:43:17;5.00;99.90
49503;DHT22;35409;48.776;9.204;2024-03-25T00:45:43;4.90;99.90
49503;DHT22;35409;48.776;9.204;2024-03-25T00:48:09;5.00;99.90
49503;DHT22;35409;48.776;9.204;2024-03-25T00:50:34;5.00;99.90
49503;DHT22;35409;48.776;9.204;2024-03-25T00:53:00;4.90;99.90
49503;DHT22;35409;48.776;9.204;2024-03-25T00:55:25;4.90;99.90
49503;DHT22;35409;48.776;9.204;2024-03-25T00:57:51;4.90;99.90
49503;DHT22;35409;48.776;9.204;2024-03-25T01:00:17;4.90;99.90
49503;DHT22;35409;48.776;9.204;2024-03-25T01:02:43;4.90;99.90
49503;DHT22;35409;48.776;9.204;2024-03-25T01:05:09;4.80;99.90
49503;DHT22;35409;48.776;9.204;2024-03-25T01:07:35;4.80;99.90
49503;DHT22;35409;48.776;9.204;2024-03-25T01:10:00;4.90;99.90
49503;DHT22;35409;48.776;9.204;2024-03-25T01:12:26;4.90;99.90
49503;DHT22;35409;48.776;9.204;2024-03-25T01:14:52;4.80;99.90
49503;DHT22;35409;48.776;9.204;2024-03-25T01:17:18;4.80;99.90
49503;DHT22;35409;48.776;9.204;2024-03-25T01:19:43;4.70;99.90
49503;DHT22;35409;48.776;9.204;2024-03-25T01:22:09;4.80;99.90
49503;DHT22;35409;48.776;9.204;2024-03-25T01:24:35;4.80;99.90
49503;DHT22;35409;48.776;9.204;2024-03-25T01:27:00;4.80;99.90
49503;DHT22;35409;48.776;9.204;2024-03-25T01:29:26;4.70;99.90
49503;DHT22;35409;48.776;9.204;2024-03-25T01:31:52;4.70;99.90
49503;DHT22;35409;48.776;9.204;2024-03-25T01:34:18;4.70;99.90
49503;DHT22;35409;48.776;9.204;2024-03-25T01:36:44;4.70;99.90
49503;DHT22;35409;48.776;9.204;2024-03-25T01:39:10;4.70;99.90
49503;DHT22;35409;48.776;9.204;2024-03-25T01:41:35;4.70;99.90
49503;DHT22;35409;48.776;9.204;2024-03-25T01:44:01;4.70;99.90
49503;DHT22;35409;48.776;9.204;2024-03-25T01:46:27;4.70;99.90
49503;DHT22;35409;48.776;9.204;2024-03-25T01:48:53;4.70;99.90
49503;DHT22;35409;48.776;9.204;2024-03-25T01:51:21;4.70;99.90
49503;DHT22;35409;48.776;9.204;2024-03-25T01:53:49;4.70;99.90
49503;DHT22;35409;48.776;9.204;2024-03-25T01:56:15;4.70;99.90
49503;DHT22;35409;48.776;9.204;2024-03-25T01:58:42;4.70;99.90
49503;DHT22;35409;48.776;9.204;2024-03-25T02:01:08;4.70;99.90
49503;DHT22;35409;48.776;9.204;2024-03-25T02:03:36;4.70;99.90
49503;DHT22;35409;48.776;9.204;2024-03-25T02:06:06;4.70;99.90
49503;DHT22;35409;48.776;9.204;2024-03-25T02:08:34;4.80;99.90
49503;DHT22;35409;48.776;9.204;2024-03-25T02:11:00;4.70;99.90
49503;DHT22;35409;48.776;9.204;2024-03-25T02:13:26;4.70;99.90
49503;DHT22;35409;48.776;9.204;2024-03-25T02:15:52;4.70;99.90
49503;DHT22;35409;48.776;9.204;2024-03-25T02:18:20;4.70;99.90
49503;DHT22;35409;48.776;9.204;2024-03-25T02:20:46;4.70;99.90
49503;DHT22;35409;48.776;9.204;2024-03-25T02:23:13;4.60;99.90
49503;DHT22;35409;48.776;9.204;2024-03-25T02:25:41;4.60;99.90
49503;DHT22;35409;48.776;9.204;2024-03-25T02:28:08;4.60;99.90
49503;DHT22;35409;48.776;9.204;2024-03-25T02:30:33;4.60;99.90
49503;DHT22;35409;48.776;9.204;2024-03-25T02:32:59;4.60;99.90
49503;DHT22;35409;48.776;9.204;2024-03-25T02:35:26;4.60;99.90
49503;DHT22;35409;48.776;9.204;2024-03-25T02:37:52;4.60;99.90
49503;DHT22;35409;48.776;9.204;2024-03-25T02:40:18;4.60;99.90
49503;DHT22;35409;48.776;9.204;2024-03-25T02:42:45;4.50;99.90
49503;DHT22;35409;48.776;9.204;2024-03-25T02:45:11;4.50;99.90
49503;DHT22;35409;48.776;9.204;2024-03-25T02:47:36;4.50;99.90
49503;DHT22;35409;48.776;9.204;2024-03-25T02:50:02;4.60;99.90
49503;DHT22;35409;48.776;9.204;2024-03-25T02:52:28;4.60;99.90
49503;DHT22;35409;48.776;9.204;2024-03-25T02:54:53;4.60;99.90
49503;DHT22;35409;48.776;9.204;2024-03-25T02:57:22;4.70;99.90
49503;DHT22;35409;48.776;9.204;2024-03-25T02:59:48;4.70;99.90
49503;DHT22;35409;48.776;9.204;2024-03-25T03:02:13;4.70;99.90
49503;DHT22;35409;48.776;9.204;2024-03-25T03:04:39;4.70;99.90
49503;DHT22;35409;48.776;9.204;2024-03-25T03:07:04;4.70;99.90
49503;DHT22;35409;48.776;9.204;2024-03-25T03:09:30;4.60;99.90
49503;DHT22;35409;48.776;9.204;2024-03-25T03:11:56;4.60;99.90
49503;DHT22;35409;48.776;9.204;2024-03-25T03:14:21;4.60;99.90
49503;DHT22;35409;48.776;9.204;2024-03-25T03:16:47;4.60;99.90
49503;DHT22;35409;48.776;9.204;2024-03-25T03:19:12;4.60;99.90
49503;DHT22;35409;48.776;9.204;2024-03-25T03:21:38;4.60;99.90
49503;DHT22;35409;48.776;9.204;2024-03-25T03:24:04;4.70;99.90
49503;DHT22;35409;48.776;9.204;2024-03-25T03:26:30;4.70;99.90
49503;DHT22;35409;48.776;9.204;2024-03-25T03:28:59;4.60;99.90
49503;DHT22;35409;48.776;9.204;2024-03-25T03:31:26;4.60;99.90
49503;DHT22;35409;48.776;9.204;2024-03-25T03:33:51;4.60;99.90
49503;DHT22;35409;48.776;9.204;2024-03-25T03:36:19;4.50;99.90
49503;DHT22;35409;48.776;9.204;2024-03-25T03:38:45;4.50;99.90
49503;DHT22;35409;48.776;9.204;2024-03-25T03:41:11;4.30;99.90
49503;DHT22;35409;48.776;9.204;2024-03-25T03:43:37;4.30;99.90
49503;DHT22;35409;48.776;9.204;2024-03-25T03:46:02;4.10;99.90
49503;DHT22;35409;48.776;9.204;2024-03-25T03:48:29;4.10;99.90
49503;DHT22;35409;48.776;9.204;2024-03-25T03:50:54;4.00;99.90
49503;DHT22;35409;48.776;9.204;2024-03-25T03:53:20;3.90;99.90
49503;DHT22;35409;48.776;9.204;2024-03-25T03:55:58;3.90;99.90
49503;DHT22;35409;48.776;9.204;2024-03-25T03:58:24;3.90;99.90
49503;DHT22;35409;48.776;9.204;2024-03-25T04:00:50;4.00;99.90
49503;DHT22;35409;48.776;9.204;2024-03-25T04:03:17;4.00;99.90
49503;DHT22;35409;48.776;9.204;2024-03-25T04:05:42;4.00;99.90
49503;DHT22;35409;48.776;9.204;2024-03-25T04:08:08;4.00;99.90
49503;DHT22;35409;48.776;9.204;2024-03-25T04:10:34;4.10;99.90
49503;DHT22;35409;48.776;9.204;2024-03-25T04:13:00;4.10;99.90
49503;DHT22;35409;48.776;9.204;2024-03-25T04:15:26;4.00;99.90
49503;DHT22;35409;48.776;9.204;2024-03-25T04:17:52;4.00;99.90
49503;DHT22;35409;48.776;9.204;2024-03-25T04:20:18;4.00;99.90
49503;DHT22;35409;48.776;9.204;2024-03-25T04:22:45;4.00;99.90
49503;DHT22;35409;48.776;9.204;2024-03-25T04:25:11;4.00;99.90
49503;DHT22;35409;48.776;9.204;2024-03-25T04:27:40;4.00;99.90
49503;DHT22;35409;48.776;9.204;2024-03-25T04:30:07;3.90;99.90
49503;DHT22;35409;48.776;9.204;2024-03-25T04:32:34;3.90;99.90
49503;DHT22;35409;48.776;9.204;2024-03-25T04:35:00;3.90;99.90
49503;DHT22;35409;48.776;9.204;2024-03-25T04:37:26;3.80;99.90
49503;DHT22;35409;48.776;9.204;2024-03-25T04:39:53;3.80;99.90
49503;DHT22;35409;48.776;9.204;2024-03-25T04:42:19;3.80;99.90
49503;DHT22;35409;48.776;9.204;2024-03-25T04:44:45;3.70;99.90
49503;DHT22;35409;48.776;9.204;2024-03-25T04:47:11;3.70;99.90
49503;DHT22;35409;48.776;9.204;2024-03-25T04:49:37;3.70;99.90
49503;DHT22;35409;48.776;9.204;2024-03-25T04:52:04;3.70;99.90
49503;DHT22;35409;48.776;9.204;2024-03-25T04:54:30;3.80;99.90
49503;DHT22;35409;48.776;9.204;2024-03-25T04:56:55;3.80;99.90
49503;DHT22;35409;48.776;9.204;2024-03-25T04:59:21;3.80;99.90
49503;DHT22;35409;48.776;9.204;2024-03-25T05:01:46;3.90;99.90
49503;DHT22;35409;48.776;9.204;2024-03-25T05:04:12;3.90;99.90
49503;DHT22;35409;48.776;9.204;2024-03-25T05:06:38;4.00;99.90
49503;DHT22;35409;48.776;9.204;2024-03-25T05:09:04;4.00;99.90
49503;DHT22;35409;48.776;9.204;2024-03-25T05:11:31;4.00;99.90
49503;DHT22;35409;48.776;9.204;2024-03-25T05:13:57;4.00;99.90
49503;DHT22;35409;48.776;9.204;2024-03-25T05:16:22;4.00;99.90
49503;DHT22;35409;48.776;9.204;2024-03-25T05:18:48;4.10;99.90
49503;DHT22;35409;48.776;9.204;2024-03-25T05:21:14;4.10;99.90
49503;DHT22;35409;48.776;9.204;2024-03-25T05:23:39;4.10;99.90
49503;DHT22;35409;48.776;9.204;2024-03-25T05:26:05;4.10;99.90
49503;DHT22;35409;48.776;9.204;2024-03-25T05:28:31;4.10;99.90
49503;DHT22;35409;48.776;9.204;2024-03-25T05:30:56;4.00;99.90
49503;DHT22;35409;48.776;9.204;2024-03-25T05:33:22;4.10;99.90
49503;DHT22;35409;48.776;9.204;2024-03-25T05:35:47;4.10;99.90
49503;DHT22;35409;48.776;9.204;2024-03-25T05:38:13;4.10;99.90
49503;DHT22;35409;48.776;9.204;2024-03-25T05:40:38;4.20;99.90
49503;DHT22;35409;48.776;9.204;2024-03-25T05:43:04;4.10;99.90
49503;DHT22;35409;48.776;9.204;2024-03-25T05:45:30;4.10;99.90
49503;DHT22;35409;48.776;9.204;2024-03-25T05:47:55;4.10;99.90
49503;DHT22;35409;48.776;9.204;2024-03-25T05:50:21;4.10;99.90
49503;DHT22;35409;48.776;9.204;2024-03-25T05:52:46;4.10;99.90
49503;DHT22;35409;48.776;9.204;2024-03-25T05:55:12;4.20;99.90
49503;DHT22;35409;48.776;9.204;2024-03-25T05:57:38;4.20;99.90
49503;DHT22;35409;48.776;9.204;2024-03-25T06:00:04;4.30;99.90
49503;DHT22;35409;48.776;9.204;2024-03-25T06:02:30;4.30;99.90
49503;DHT22;35409;48.776;9.204;2024-03-25T06:04:56;4.30;99.90
49503;DHT22;35409;48.776;9.204;2024-03-25T06:07:22;4.30;99.90
49503;DHT22;35409;48.776;9.204;2024-03-25T06:09:48;4.40;99.90
49503;DHT22;35409;48.776;9.204;2024-03-25T06:12:13;4.30;99.90
49503;DHT22;35409;48.776;9.204;2024-03-25T06:14:39;4.30;99.90
49503;DHT22;35409;48.776;9.204;2024-03-25T06:17:05;4.30;99.90
49503;DHT22;35409;48.776;9.204;2024-03-25T06:19:31;4.20;99.90
49503;DHT22;35409;48.776;9.204;2024-03-25T06:21:57;4.30;99.90
49503;DHT22;35409;48.776;9.204;2024-03-25T06:24:22;4.30;99.90
49503;DHT22;35409;48.776;9.204;2024-03-25T06:26:49;4.30;99.90
49503;DHT22;35409;48.776;9.204;2024-03-25T06:29:14;4.40;99.90
49503;DHT22;35409;48.776;9.204;2024-03-25T06:31:40;4.40;99.90
49503;DHT22;35409;48.776;9.204;2024-03-25T06:34:24;4.40;99.90
49503;DHT22;35409;48.776;9.204;2024-03-25T06:36:51;4.40;99.90
49503;DHT22;35409;48.776;9.204;2024-03-25T06:39:16;4.50;99.90
49503;DHT22;35409;48.776;9.204;2024-03-25T06:41:42;4.60;99.90
49503;DHT22;35409;48.776;9.204;2024-03-25T06:44:08;4.80;99.90
49503;DHT22;35409;48.776;9.204;2024-03-25T06:46:34;4.90;99.90
49503;DHT22;35409;48.776;9.204;2024-03-25T06:48:59;5.00;99.90
49503;DHT22;35409;48.776;9.204;2024-03-25T06:51:25;5.10;99.90
49503;DHT22;35409;48.776;9.204;2024-03-25T06:53:51;5.00;99.90
49503;DHT22;35409;48.776;9.204;2024-03-25T06:56:17;5.00;99.90
49503;DHT22;35409;48.776;9.204;2024-03-25T06:58:43;4.90;99.90
49503;DHT22;35409;48.776;9.204;2024-03-25T07:01:09;5.00;99.90
49503;DHT22;35409;48.776;9.204;2024-03-25T07:03:38;5.10;99.90
49503;DHT22;35409;48.776;9.204;2024-03-25T07:06:04;5.20;99.90
49503;DHT22;35409;48.776;9.204;2024-03-25T07:08:30;5.40;99.90
49503;DHT22;35409;48.776;9.204;2024-03-25T07:10:56;5.50;99.90
49503;DHT22;35409;48.776;9.204;2024-03-25T07:13:22;5.60;99.90
49503;DHT22;35409;48.776;9.204;2024-03-25T07:15:48;5.60;99.90
49503;DHT22;35409;48.776;9.204;2024-03-25T07:18:13;5.50;99.90
49503;DHT22;35409;48.776;9.204;2024-03-25T07:20:40;5.50;99.90
49503;DHT22;35409;48.776;9.204;2024-03-25T07:23:06;5.50;99.90
49503;DHT22;35409;48.776;9.204;2024-03-25T07:25:32;5.50;99.90
49503;DHT22;35409;48.776;9.204;2024-03-25T07:27:57;5.50;99.90
49503;DHT22;35409;48.776;9.204;2024-03-25T07:30:23;5.70;99.90
49503;DHT22;35409;48.776;9.204;2024-03-25T07:32:53;5.70;99.90
49503;DHT22;35409;48.776;9.204;2024-03-25T07:35:18;5.80;99.90
49503;DHT22;35409;48.776;9.204;2024-03-25T07:37:44;5.90;99.90
49503;DHT22;35409;48.776;9.204;2024-03-25T07:40:10;6.10;99.90
49503;DHT22;35409;48.776;9.204;2024-03-25T07:42:37;6.20;99.90
49503;DHT22;35409;48.776;9.204;2024-03-25T07:45:03;6.30;99.90
49503;DHT22;35409;48.776;9.204;2024-03-25T07:47:33;6.50;99.90
49503;DHT22;35409;48.776;9.204;2024-03-25T07:49:59;6.60;99.90
49503;DHT22;35409;48.776;9.204;2024-03-25T07:52:25;6.70;99.90
49503;DHT22;35409;48.776;9.204;2024-03-25T07:54:50;6.80;99.90
49503;DHT22;35409;48.776;9.204;2024-03-25T07:57:17;6.90;99.90
49503;DHT22;35409;48.776;9.204;2024-03-25T07:59:42;7.00;99.90
49503;DHT22;35409;48.776;9.204;2024-03-25T08:02:08;7.10;99.90
49503;DHT22;35409;48.776;9.204;2024-03-25T08:04:33;7.20;99.90
49503;DHT22;35409;48.776;9.204;2024-03-25T08:06:59;7.30;99.90
49503;DHT22;35409;48.776;9.204;2024-03-25T08:09:24;7.50;99.90
49503;DHT22;35409;48.776;9.204;2024-03-25T08:11:50;7.70;99.90
49503;DHT22;35409;48.776;9.204;2024-03-25T08:14:15;7.80;99.90
49503;DHT22;35409;48.776;9.204;2024-03-25T08:16:41;8.00;99.90
49503;DHT22;35409;48.776;9.204;2024-03-25T08:19:06;8.20;99.90
49503;DHT22;35409;48.776;9.204;2024-03-25T08:21:32;8.40;99.90
49503;DHT22;35409;48.776;9.204;2024-03-25T08:23:58;8.50;99.90
49503;DHT22;35409;48.776;9.204;2024-03-25T08:26:23;8.70;99.90
49503;DHT22;35409;48.776;9.204;2024-03-25T08:28:49;8.80;99.90
49503;DHT22;35409;48.776;9.204;2024-03-25T08:31:15;8.80;99.90
49503;DHT22;35409;48.776;9.204;2024-03-25T08:33:41;8.80;99.90
49503;DHT22;35409;48.776;9.204;2024-03-25T08:36:07;8.90;99.90
49503;DHT22;35409;48.776;9.204;2024-03-25T08:38:33;8.90;99.90
49503;DHT22;35409;48.776;9.204;2024-03-25T08:40:59;8.90;99.90
49503;DHT22;35409;48.776;9.204;2024-03-25T08:43:24;8.90;99.90
49503;DHT22;35409;48.776;9.204;2024-03-25T08:45:50;8.80;99.90
49503;DHT22;35409;48.776;9.204;2024-03-25T08:48:16;8.70;99.90
49503;DHT22;35409;48.776;9.204;2024-03-25T08:50:42;8.60;99.90
49503;DHT22;35409;48.776;9.204;2024-03-25T08:53:08;8.50;99.90
49503;DHT22;35409;48.776;9.204;2024-03-25T08:55:33;8.40;99.90
49503;DHT22;35409;48.776;9.204;2024-03-25T08:57:59;8.30;99.90
49503;DHT22;35409;48.776;9.204;2024-03-25T09:00:26;8.40;99.90
49503;DHT22;35409;48.776;9.204;2024-03-25T09:02:53;8.60;99.90
49503;DHT22;35409;48.776;9.204;2024-03-25T09:05:18;8.70;99.90
49503;DHT22;35409;48.776;9.204;2024-03-25T09:07:44;9.00;99.90
49503;DHT22;35409;48.776;9.204;2024-03-25T09:10:10;9.30;99.90
49503;DHT22;35409;48.776;9.204;2024-03-25T09:12:55;9.40;99.90
49503;DHT22;35409;48.776;9.204;2024-03-25T09:15:21;9.40;99.90
49503;DHT22;35409;48.776;9.204;2024-03-25T09:17:46;9.40;99.90
49503;DHT22;35409;48.776;9.204;2024-03-25T09:20:12;9.40;99.90
49503;DHT22;35409;48.776;9.204;2024-03-25T09:22:43;9.40;99.90
49503;DHT22;35409;48.776;9.204;2024-03-25T09:25:08;9.30;99.90
49503;DHT22;35409;48.776;9.204;2024-03-25T09:27:34;9.20;99.90
49503;DHT22;35409;48.776;9.204;2024-03-25T09:30:00;9.30;99.50
49503;DHT22;35409;48.776;9.204;2024-03-25T09:32:25;9.30;97.90
49503;DHT22;35409;48.776;9.204;2024-03-25T09:34:52;9.20;96.80
49503;DHT22;35409;48.776;9.204;2024-03-25T09:37:17;9.00;97.60
49503;DHT22;35409;48.776;9.204;2024-03-25T09:39:43;8.90;97.60
49503;DHT22;35409;48.776;9.204;2024-03-25T09:42:14;8.90;97.70
49503;DHT22;35409;48.776;9.204;2024-03-25T09:44:40;9.00;97.80
49503;DHT22;35409;48.776;9.204;2024-03-25T09:47:06;9.20;97.50
49503;DHT22;35409;48.776;9.204;2024-03-25T09:49:33;9.40;97.70
49503;DHT22;35409;48.776;9.204;2024-03-25T09:51:59;9.40;98.00
49503;DHT22;35409;48.776;9.204;2024-03-25T09:54:25;9.60;97.60
49503;DHT22;35409;48.776;9.204;2024-03-25T09:56:50;9.80;98.10
49503;DHT22;35409;48.776;9.204;2024-03-25T09:59:17;9.90;98.00
49503;DHT22;35409;48.776;9.204;2024-03-25T10:01:43;10.10;97.20
49503;DHT22;35409;48.776;9.204;2024-03-25T10:04:09;10.20;96.90
49503;DHT22;35409;48.776;9.204;2024-03-25T10:06:35;10.20;98.10
49503;DHT22;35409;48.776;9.204;2024-03-25T10:09:05;10.20;98.70
49503;DHT22;35409;48.776;9.204;2024-03-25T10:11:32;10.10;98.20
49503;DHT22;35409;48.776;9.204;2024-03-25T10:14:03;10.00;98.20
49503;DHT22;35409;48.776;9.204;2024-03-25T10:16:28;9.80;99.00
49503;DHT22;35409;48.776;9.204;2024-03-25T10:18:54;9.70;98.90
49503;DHT22;35409;48.776;9.204;2024-03-25T10:21:21;9.70;98.60
49503;DHT22;35409;48.776;9.204;2024-03-25T10:23:48;9.60;98.50
49503;DHT22;35409;48.776;9.204;2024-03-25T10:26:31;9.50;99.20
49503;DHT22;35409;48.776;9.204;2024-03-25T10:29:06;9.40;99.40
49503;DHT22;35409;48.776;9.204;2024-03-25T10:31:32;9.30;99.50
49503;DHT22;35409;48.776;9.204;2024-03-25T10:33:58;9.20;98.90
49503;DHT22;35409;48.776;9.204;2024-03-25T10:36:25;9.10;98.70
49503;DHT22;35409;48.776;9.204;2024-03-25T10:38:56;9.00;98.90
49503;DHT22;35409;48.776;9.204;2024-03-25T10:41:22;9.00;99.00
49503;DHT22;35409;48.776;9.204;2024-03-25T10:43:49;9.00;98.90
49503;DHT22;35409;48.776;9.204;2024-03-25T10:46:22;9.10;98.70
49503;DHT22;35409;48.776;9.204;2024-03-25T10:49:24;9.10;99.00
49503;DHT22;35409;48.776;9.204;2024-03-25T10:51:53;9.10;99.00
49503;DHT22;35409;48.776;9.204;2024-03-25T10:54:20;9.10;99.20
49503;DHT22;35409;48.776;9.204;2024-03-25T10:56:47;9.20;98.90
49503;DHT22;35409;48.776;9.204;2024-03-25T10:59:17;9.20;98.90
49503;DHT22;35409;48.776;9.204;2024-03-25T11:01:43;9.30;99.10
49503;DHT22;35409;48.776;9.204;2024-03-25T11:04:11;9.40;98.80
49503;DHT22;35409;48.776;9.204;2024-03-25T11:06:37;9.60;98.80
49503;DHT22;35409;48.776;9.204;2024-03-25T11:09:03;9.90;98.60
49503;DHT22;35409;48.776;9.204;2024-03-25T11:11:33;10.00;98.10
49503;DHT22;35409;48.776;9.204;2024-03-25T11:13:59;10.10;97.00
49503;DHT22;35409;48.776;9.204;2024-03-25T11:16:31;10.10;96.90
49503;DHT22;35409;48.776;9.204;2024-03-25T11:19:03;10.10;97.00
49503;DHT22;35409;48.776;9.204;2024-03-25T11:21:31;10.10;97.30
49503;DHT22;35409;48.776;9.204;2024-03-25T11:24:06;10.10;96.60
49503;DHT22;35409;48.776;9.204;2024-03-25T11:26:32;10.20;96.60
49503;DHT22;35409;48.776;9.204;2024-03-25T11:29:01;10.30;96.50
49503;DHT22;35409;48.776;9.204;2024-03-25T11:31:27;10.50;95.90
49503;DHT22;35409;48.776;9.204;2024-03-25T11:33:53;10.70;95.50
49503;DHT22;35409;48.776;9.204;2024-03-25T11:36:19;10.70;95.30
49503;DHT22;35409;48.776;9.204;2024-03-25T11:38:46;10.90;95.80
49503;DHT22;35409;48.776;9.204;2024-03-25T11:41:22;11.00;95.60
49503;DHT22;35409;48.776;9.204;2024-03-25T11:43:48;11.40;94.60
49503;DHT22;35409;48.776;9.204;2024-03-25T11:46:17;11.60;94.10
49503;DHT22;35409;48.776;9.204;2024-03-25T11:48:44;11.70;94.00
49503;DHT22;35409;48.776;9.204;2024-03-25T11:51:12;11.90;93.30
49503;DHT22;35409;48.776;9.204;2024-03-25T11:53:38;12.00;93.60
49503;DHT22;35409;48.776;9.204;2024-03-25T11:56:04;12.10;92.50
49503;DHT22;35409;48.776;9.204;2024-03-25T11:58:30;12.10;93.20
49503;DHT22;35409;48.776;9.204;2024-03-25T12:00:56;12.00;93.40
49503;DHT22;35409;48.776;9.204;2024-03-25T12:03:22;12.10;93.50
49503;DHT22;35409;48.776;9.204;2024-03-25T12:05:48;12.70;92.10
49503;DHT22;35409;48.776;9.204;2024-03-25T12:08:13;13.20;93.50
49503;DHT22;35409;48.776;9.204;2024-03-25T12:10:39;13.60;91.00
49503;DHT22;35409;48.776;9.204;2024-03-25T12:13:25;13.80;91.00
49503;DHT22;35409;48.776;9.204;2024-03-25T12:15:51;13.90;90.50
49503;DHT22;35409;48.776;9.204;2024-03-25T12:18:17;14.20;91.20
49503;DHT22;35409;48.776;9.204;2024-03-25T12:20:45;14.80;89.20
49503;DHT22;35409;48.776;9.204;2024-03-25T12:23:11;15.10;88.20
49503;DHT22;35409;48.776;9.204;2024-03-25T12:25:36;15.50;84.60
49503;DHT22;35409;48.776;9.204;2024-03-25T12:28:08;15.40;85.40
49503;DHT22;35409;48.776;9.204;2024-03-25T12:30:48;15.70;83.10
49503;DHT22;35409;48.776;9.204;2024-03-25T12:33:14;15.80;83.50
49503;DHT22;35409;48.776;9.204;2024-03-25T12:35:41;15.60;83.70
49503;DHT22;35409;48.776;9.204;2024-03-25T12:38:07;15.80;82.90
49503;DHT22;35409;48.776;9.204;2024-03-25T12:40:32;15.70;81.50
49503;DHT22;35409;48.776;9.204;2024-03-25T12:42:58;15.80;82.70
49503;DHT22;35409;48.776;9.204;2024-03-25T12:45:24;16.00;82.20
49503;DHT22;35409;48.776;9.204;2024-03-25T12:47:50;15.70;79.90
49503;DHT22;35409;48.776;9.204;2024-03-25T12:50:16;16.00;78.30
49503;DHT22;35409;48.776;9.204;2024-03-25T12:52:42;16.40;75.80
49503;DHT22;35409;48.776;9.204;2024-03-25T12:55:07;16.80;75.70
49503;DHT22;35409;48.776;9.204;2024-03-25T12:57:33;17.40;75.00
49503;DHT22;35409;48.776;9.204;2024-03-25T13:00:00;18.00;74.20
49503;DHT22;35409;48.776;9.204;2024-03-25T13:04:52;19.00;69.80
49503;DHT22;35409;48.776;9.204;2024-03-25T13:07:18;19.40;67.80
49503;DHT22;35409;48.776;9.204;2024-03-25T13:09:43;19.40;66.90
49503;DHT22;35409;48.776;9.204;2024-03-25T13:12:09;19.20;66.70
49503;DHT22;35409;48.776;9.204;2024-03-25T13:14:34;19.20;67.60
49503;DHT22;35409;48.776;9.204;2024-03-25T13:17:00;19.20;66.40
49503;DHT22;35409;48.776;9.204;2024-03-25T13:19:25;19.30;66.10
49503;DHT22;35409;48.776;9.204;2024-03-25T13:21:55;19.30;67.10
49503;DHT22;35409;48.776;9.204;2024-03-25T13:24:20;19.20;67.60
49503;DHT22;35409;48.776;9.204;2024-03-25T13:26:46;19.00;67.90
49503;DHT22;35409;48.776;9.204;2024-03-25T13:29:12;18.40;67.40
49503;DHT22;35409;48.776;9.204;2024-03-25T13:31:37;18.10;68.90
49503;DHT22;35409;48.776;9.204;2024-03-25T13:34:03;17.90;69.20
49503;DHT22;35409;48.776;9.204;2024-03-25T13:36:28;17.90;68.50
49503;DHT22;35409;48.776;9.204;2024-03-25T13:38:54;17.90;67.20
49503;DHT22;35409;48.776;9.204;2024-03-25T13:41:20;17.80;67.00
49503;DHT22;35409;48.776;9.204;2024-03-25T13:43:48;17.90;66.30
49503;DHT22;35409;48.776;9.204;2024-03-25T13:46:13;17.70;66.40
49503;DHT22;35409;48.776;9.204;2024-03-25T13:48:39;17.80;67.00
49503;DHT22;35409;48.776;9.204;2024-03-25T13:51:05;17.80;66.30
49503;DHT22;35409;48.776;9.204;2024-03-25T13:53:30;18.00;65.90
49503;DHT22;35409;48.776;9.204;2024-03-25T13:55:56;18.30;63.70
49503;DHT22;35409;48.776;9.204;2024-03-25T13:58:22;18.50;64.90
49503;DHT22;35409;48.776;9.204;2024-03-25T14:00:48;18.70;65.60
49503;DHT22;35409;48.776;9.204;2024-03-25T14:03:14;18.50;66.00
49503;DHT22;35409;48.776;9.204;2024-03-25T14:05:41;18.10;66.00
49503;DHT22;35409;48.776;9.204;2024-03-25T14:08:07;18.10;66.00
49503;DHT22;35409;48.776;9.204;2024-03-25T14:10:32;17.90;67.00
49503;DHT22;35409;48.776;9.204;2024-03-25T14:12:58;18.00;66.80
49503;DHT22;35409;48.776;9.204;2024-03-25T14:15:23;18.00;65.40
49503;DHT22;35409;48.776;9.204;2024-03-25T14:17:49;18.10;66.60
49503;DHT22;35409;48.776;9.204;2024-03-25T14:20:14;18.40;66.60
49503;DHT22;35409;48.776;9.204;2024-03-25T14:22:40;18.50;67.00
49503;DHT22;35409;48.776;9.204;2024-03-25T14:25:06;18.80;64.70
49503;DHT22;35409;48.776;9.204;2024-03-25T14:27:32;18.90;63.80
49503;DHT22;35409;48.776;9.204;2024-03-25T14:29:57;19.10;63.80
49503;DHT22;35409;48.776;9.204;2024-03-25T14:32:24;19.30;63.50
49503;DHT22;35409;48.776;9.204;2024-03-25T14:34:49;19.50;62.10
49503;DHT22;35409;48.776;9.204;2024-03-25T14:37:15;19.30;63.20
49503;DHT22;35409;48.776;9.204;2024-03-25T14:39:41;19.20;63.10
49503;DHT22;35409;48.776;9.204;2024-03-25T14:42:08;18.80;62.70
49503;DHT22;35409;48.776;9.204;2024-03-25T14:44:36;18.30;63.60
49503;DHT22;35409;48.776;9.204;2024-03-25T14:47:01;18.00;63.90
49503;DHT22;35409;48.776;9.204;2024-03-25T14:49:27;17.90;64.50
49503;DHT22;35409;48.776;9.204;2024-03-25T14:51:53;18.10;64.20
49503;DHT22;35409;48.776;9.204;2024-03-25T14:54:19;18.20;64.30
49503;DHT22;35409;48.776;9.204;2024-03-25T14:56:45;18.40;63.80
49503;DHT22;35409;48.776;9.204;2024-03-25T14:59:11;18.10;63.80
49503;DHT22;35409;48.776;9.204;2024-03-25T15:01:36;17.70;64.50
49503;DHT22;35409;48.776;9.204;2024-03-25T15:04:03;17.70;65.60
49503;DHT22;35409;48.776;9.204;2024-03-25T15:06:29;17.90;64.40
49503;DHT22;35409;48.776;9.204;2024-03-25T15:08:56;18.00;63.80
49503;DHT22;35409;48.776;9.204;2024-03-25T15:11:22;18.00;63.70
49503;DHT22;35409;48.776;9.204;2024-03-25T15:13:48;18.20;63.90
49503;DHT22;35409;48.776;9.204;2024-03-25T15:16:16;18.20;64.10
49503;DHT22;35409;48.776;9.204;2024-03-25T15:18:41;18.10;62.80
49503;DHT22;35409;48.776;9.204;2024-03-25T15:21:07;17.80;63.20
49503;DHT22;35409;48.776;9.204;2024-03-25T15:23:32;17.60;63.80
49503;DHT22;35409;48.776;9.204;2024-03-25T15:25:58;17.50;64.30
49503;DHT22;35409;48.776;9.204;2024-03-25T15:28:24;17.60;64.10
49503;DHT22;35409;48.776;9.204;2024-03-25T15:30:50;17.80;64.10
49503;DHT22;35409;48.776;9.204;2024-03-25T15:33:17;17.80;63.40
49503;DHT22;35409;48.776;9.204;2024-03-25T15:35:46;17.70;63.70
49503;DHT22;35409;48.776;9.204;2024-03-25T15:38:12;17.50;63.60
49503;DHT22;35409;48.776;9.204;2024-03-25T15:40:38;17.30;64.40